createdAt,value
2023-02-04T00:01:00.305Z,2.23
2023-02-04T00:03:26.828Z,1.77
2023-02-04T00:05:53.348Z,1.97
2023-02-04T00:08:19.846Z,1.90
2023-02-04T00:10:47.409Z,2.20
2023-02-04T00:13:13.913Z,2.00
2023-02-04T00:15:40.387Z,3.10
2023-02-04T00:18:07.194Z,1.53
2023-02-04T00:20:34.148Z,1.90
2023-02-04T00:23:00.612Z,2.00
2023-02-04T00:25:27.351Z,1.80
2023-02-04T00:27:53.875Z,1.80
2023-02-04T00:30:20.422Z,1.50
2023-02-04T00:32:46.874Z,2.00
2023-02-04T00:35:13.388Z,1.80
2023-02-04T00:37:39.818Z,1.53
2023-02-04T00:40:06.659Z,2.43
2023-02-04T00:42:33.084Z,2.00
2023-02-04T00:44:59.605Z,1.50
2023-02-04T00:47:26.076Z,1.80
2023-02-04T00:49:52.514Z,2.10
2023-02-04T00:52:18.951Z,2.20
2023-02-04T00:54:45.407Z,1.90
2023-02-04T00:57:11.855Z,2.10
2023-02-04T00:59:38.301Z,1.40
2023-02-04T01:02:04.753Z,2.00
2023-02-04T01:04:31.229Z,1.63
2023-02-04T01:06:58.281Z,1.70
2023-02-04T01:09:24.727Z,1.80
2023-02-04T01:11:51.197Z,1.90
2023-02-04T01:14:17.702Z,1.97
2023-02-04T01:16:45.164Z,2.53
2023-02-04T01:19:11.759Z,2.27
2023-02-04T01:21:39.861Z,2.50
2023-02-04T01:24:07.589Z,2.60
2023-02-04T01:26:54.005Z,1.67
2023-02-04T01:29:20.478Z,2.07
2023-02-04T01:31:46.941Z,2.00
2023-02-04T01:34:13.457Z,2.17
2023-02-04T01:36:39.912Z,1.80
2023-02-04T01:39:06.405Z,2.93
2023-02-04T01:41:32.890Z,1.70
2023-02-04T01:43:59.497Z,2.57
2023-02-04T01:46:26.445Z,2.00
2023-02-04T01:48:53.767Z,1.97
2023-02-04T01:51:27.896Z,2.43
2023-02-04T01:53:55.351Z,1.93
2023-02-04T01:56:26.805Z,2.47
2023-02-04T01:58:56.789Z,2.20
2023-02-04T02:01:42.513Z,2.40
2023-02-04T02:04:10.414Z,1.67
2023-02-04T02:06:38.325Z,2.80
2023-02-04T02:09:04.916Z,2.17
2023-02-04T02:11:32.304Z,2.10
2023-02-04T02:13:59.411Z,2.23
2023-02-04T02:16:26.163Z,2.00
2023-02-04T02:18:54.447Z,2.80
2023-02-04T02:21:35.390Z,1.77
2023-02-04T02:24:24.037Z,2.30
2023-02-04T02:26:54.229Z,3.00
2023-02-04T02:29:20.823Z,2.93
2023-02-04T02:31:47.396Z,2.27
2023-02-04T02:34:14.167Z,1.80
2023-02-04T02:36:40.813Z,3.10
2023-02-04T02:39:07.351Z,2.40
2023-02-04T02:41:35.202Z,2.70
2023-02-04T02:44:02.345Z,1.93
2023-02-04T02:46:28.881Z,2.37
2023-02-04T02:48:55.351Z,2.17
2023-02-04T02:51:21.810Z,1.80
2023-02-04T02:53:49.369Z,2.17
2023-02-04T02:56:17.864Z,2.20
2023-02-04T02:58:44.524Z,1.87
2023-02-04T03:01:11.433Z,1.40
2023-02-04T03:03:43.005Z,2.03
2023-02-04T03:06:16.967Z,2.20
2023-02-04T03:08:44.143Z,1.60
2023-02-04T03:11:11.256Z,1.50
2023-02-04T03:13:38.087Z,2.10
2023-02-04T03:16:05.481Z,1.93
2023-02-04T03:18:32.228Z,2.37
2023-02-04T03:20:58.997Z,2.53
2023-02-04T03:23:27.159Z,2.30
2023-02-04T03:25:54.145Z,1.40
2023-02-04T03:28:20.628Z,1.30
2023-02-04T03:30:53.730Z,1.27
2023-02-04T03:33:20.327Z,2.33
2023-02-04T03:35:47.024Z,2.50
2023-02-04T03:38:13.695Z,2.70
2023-02-04T03:40:40.125Z,2.30
2023-02-04T03:43:06.574Z,1.60
2023-02-04T03:45:44.567Z,1.60
2023-02-04T03:48:11.778Z,1.40
2023-02-04T03:50:38.200Z,1.50
2023-02-04T03:53:04.649Z,1.90
2023-02-04T03:55:32.783Z,2.33
2023-02-04T03:57:59.250Z,1.67
2023-02-04T04:00:25.678Z,1.60
2023-02-04T04:02:52.199Z,2.43
2023-02-04T04:05:18.686Z,1.27
2023-02-04T04:07:45.538Z,2.80
2023-02-04T04:10:12.121Z,1.90
2023-02-04T04:12:38.679Z,1.80
2023-02-04T04:15:05.245Z,2.00
2023-02-04T04:17:31.699Z,2.07
2023-02-04T04:19:58.148Z,2.20
2023-02-04T04:22:24.616Z,2.07
2023-02-04T04:24:51.073Z,2.00
2023-02-04T04:27:17.571Z,1.80
2023-02-04T04:29:44.017Z,2.10
2023-02-04T04:32:10.688Z,1.80
2023-02-04T04:34:37.229Z,2.00
2023-02-04T04:37:03.739Z,1.50
2023-02-04T04:39:30.191Z,1.70
2023-02-04T04:41:56.606Z,1.90
2023-02-04T04:44:23.053Z,1.70
2023-02-04T04:46:49.574Z,1.60
2023-02-04T04:49:16.409Z,1.73
2023-02-04T04:51:42.868Z,1.57
2023-02-04T04:54:09.312Z,2.13
2023-02-04T04:56:35.746Z,1.83
2023-02-04T04:59:03.289Z,1.47
2023-02-04T05:01:29.791Z,2.00
2023-02-04T05:03:56.244Z,1.63
2023-02-04T05:06:25.344Z,2.00
2023-02-04T05:08:52.515Z,3.00
2023-02-04T05:11:19.084Z,1.50
2023-02-04T05:13:45.600Z,3.10
2023-02-04T05:16:12.319Z,2.03
2023-02-04T05:18:39.913Z,1.60
2023-02-04T05:21:06.664Z,2.17
2023-02-04T05:23:33.505Z,1.40
2023-02-04T05:26:00.090Z,2.20
2023-02-04T05:28:26.657Z,2.00
2023-02-04T05:30:53.198Z,1.63
2023-02-04T05:33:19.624Z,2.17
2023-02-04T05:35:46.156Z,1.80
2023-02-04T05:38:12.617Z,2.27
2023-02-04T05:40:39.051Z,2.13
2023-02-04T05:43:05.555Z,2.20
2023-02-04T05:45:32.018Z,1.00
2023-02-04T05:47:58.485Z,1.53
2023-02-04T05:50:24.957Z,1.10
2023-02-04T05:53:07.724Z,1.80
2023-02-04T05:55:34.179Z,1.27
2023-02-04T05:58:00.702Z,1.20
2023-02-04T06:00:27.231Z,1.77
2023-02-04T06:02:53.718Z,2.00
2023-02-04T06:05:20.271Z,1.60
2023-02-04T06:07:46.944Z,2.07
2023-02-04T06:10:13.393Z,1.93
2023-02-04T06:12:39.896Z,1.97
2023-02-04T06:15:07.024Z,1.37
2023-02-04T06:17:33.460Z,1.80
2023-02-04T06:19:59.964Z,1.80
2023-02-04T06:22:26.776Z,1.20
2023-02-04T06:24:53.232Z,1.07
2023-02-04T06:27:23.279Z,1.30
2023-02-04T06:29:53.536Z,2.07
2023-02-04T06:32:20.947Z,1.90
2023-02-04T06:34:47.720Z,2.17
2023-02-04T06:37:15.813Z,1.00
2023-02-04T06:39:42.875Z,1.20
2023-02-04T06:42:09.572Z,1.63
2023-02-04T06:44:36.061Z,1.87
2023-02-04T06:47:02.561Z,1.87
2023-02-04T06:49:29.083Z,2.67
2023-02-04T06:51:55.517Z,1.53
2023-02-04T06:54:22.034Z,1.90
2023-02-04T06:56:48.812Z,1.20
2023-02-04T06:59:15.246Z,1.47
2023-02-04T07:01:41.741Z,1.40
2023-02-04T07:04:08.205Z,0.90
2023-02-04T07:06:34.746Z,1.25
2023-02-04T07:09:01.207Z,0.80
2023-02-04T07:11:27.658Z,1.10
2023-02-04T07:13:54.112Z,0.80
2023-02-04T07:16:20.540Z,0.70
2023-02-04T07:18:46.991Z,0.90
2023-02-04T07:21:13.436Z,0.80
2023-02-04T07:23:39.863Z,0.60
2023-02-04T07:26:06.293Z,2.30
2023-02-04T07:28:32.709Z,0.63
2023-02-04T07:30:59.296Z,0.80
2023-02-04T07:33:25.819Z,0.80
2023-02-04T07:35:52.294Z,0.50
2023-02-04T07:38:18.704Z,1.20
2023-02-04T07:40:45.168Z,0.80
2023-02-04T07:43:11.928Z,0.95
2023-02-04T07:45:38.566Z,0.70
2023-02-04T07:48:05.400Z,1.00
2023-02-04T07:50:32.256Z,1.10
2023-02-04T07:52:58.860Z,0.80
2023-02-04T07:55:25.356Z,1.07
2023-02-04T07:57:51.813Z,1.23
2023-02-04T08:00:18.488Z,1.00
2023-02-04T08:02:45.034Z,0.60
2023-02-04T08:05:11.939Z,0.90
2023-02-04T08:07:38.546Z,1.03
2023-02-04T08:10:06.440Z,0.70
2023-02-04T08:12:33.009Z,0.60
2023-02-04T08:15:01.060Z,0.70
2023-02-04T08:17:28.033Z,0.80
2023-02-04T08:19:54.533Z,0.53
2023-02-04T08:22:20.968Z,0.80
2023-02-04T08:24:47.437Z,0.60
2023-02-04T08:27:14.101Z,0.70
2023-02-04T08:29:40.605Z,1.02
2023-02-04T08:32:07.102Z,1.10
2023-02-04T08:34:33.551Z,1.00
2023-02-04T08:36:59.999Z,0.70
2023-02-04T08:39:26.443Z,0.70
2023-02-04T08:41:53.156Z,0.60
2023-02-04T08:44:19.624Z,0.50
2023-02-04T08:46:46.111Z,1.17
2023-02-04T08:49:12.564Z,0.93
2023-02-04T08:51:38.998Z,0.87
2023-02-04T08:54:05.420Z,0.90
2023-02-04T08:56:31.866Z,0.77
2023-02-04T08:58:58.321Z,0.70
2023-02-04T09:01:24.790Z,1.30
2023-02-04T09:03:51.237Z,0.90
2023-02-04T09:06:17.705Z,1.17
2023-02-04T09:08:44.139Z,0.70
2023-02-04T09:11:12.242Z,0.70
2023-02-04T09:13:39.462Z,0.73
2023-02-04T09:16:06.353Z,0.90
2023-02-04T09:18:33.155Z,1.10
2023-02-04T09:20:59.602Z,0.80
2023-02-04T09:23:26.090Z,0.50
2023-02-04T09:25:52.597Z,0.90
2023-02-04T09:28:19.122Z,0.60
2023-02-04T09:30:46.831Z,0.90
2023-02-04T09:33:14.904Z,0.70
2023-02-04T09:35:41.392Z,0.90
2023-02-04T09:38:07.884Z,0.80
2023-02-04T09:40:37.724Z,0.80
2023-02-04T09:43:04.826Z,0.80
2023-02-04T09:45:34.751Z,0.67
2023-02-04T09:48:03.549Z,0.90
2023-02-04T09:50:32.163Z,0.60
2023-02-04T09:53:01.727Z,0.43
2023-02-04T09:55:35.055Z,0.47
2023-02-04T09:58:02.164Z,0.80
2023-02-04T10:00:30.285Z,0.57
2023-02-04T10:03:00.799Z,0.80
2023-02-04T10:05:32.317Z,1.37
2023-02-04T10:07:59.220Z,0.83
2023-02-04T10:10:27.363Z,0.57
2023-02-04T10:12:56.737Z,0.40
2023-02-04T10:15:23.240Z,0.50
2023-02-04T10:17:52.727Z,0.47
2023-02-04T10:20:23.920Z,0.37
2023-02-04T10:22:53.164Z,0.50
2023-02-04T10:25:21.993Z,0.33
2023-02-04T10:27:49.491Z,0.87
2023-02-04T10:30:24.676Z,0.60
2023-02-04T10:32:51.627Z,0.70
2023-02-04T10:35:19.708Z,0.73
2023-02-04T10:37:46.888Z,0.80
2023-02-04T10:40:48.945Z,0.50
2023-02-04T10:43:21.884Z,0.60
2023-02-04T10:45:59.108Z,0.70
2023-02-04T10:48:25.977Z,0.63
2023-02-04T10:50:52.419Z,0.57
2023-02-04T10:53:40.185Z,0.60
2023-02-04T10:56:18.195Z,0.63
2023-02-04T10:58:44.701Z,0.60
2023-02-04T11:01:12.291Z,0.90
2023-02-04T11:03:40.063Z,0.60
2023-02-04T11:06:22.244Z,0.77
2023-02-04T11:08:51.350Z,0.60
2023-02-04T11:11:20.287Z,0.47
2023-02-04T11:13:49.478Z,0.80
2023-02-04T11:16:16.945Z,1.07
2023-02-04T11:18:59.650Z,0.80
2023-02-04T11:21:32.276Z,0.90
2023-02-04T11:24:11.094Z,0.67
2023-02-04T11:26:40.113Z,0.50
2023-02-04T11:29:06.475Z,1.07
2023-02-04T11:31:32.930Z,0.70
2023-02-04T11:34:15.728Z,0.90
2023-02-04T11:36:55.206Z,0.67
2023-02-04T11:39:21.804Z,0.90
2023-02-04T11:41:48.338Z,1.10
2023-02-04T11:44:15.781Z,0.80
2023-02-04T11:46:42.238Z,0.70
2023-02-04T11:49:20.080Z,0.70
2023-02-04T11:51:46.678Z,0.90
2023-02-04T11:54:16.269Z,0.77
2023-02-04T11:56:42.973Z,0.83
2023-02-04T11:59:11.504Z,0.90
2023-02-04T12:01:37.957Z,0.50
2023-02-04T12:04:07.172Z,0.60
2023-02-04T12:06:36.076Z,0.53
2023-02-04T12:09:23.959Z,1.17
2023-02-04T12:11:55.017Z,0.53
2023-02-04T12:14:21.668Z,0.70
2023-02-04T12:16:51.620Z,1.03
2023-02-04T12:19:18.537Z,0.60
2023-02-04T12:21:45.627Z,0.60
2023-02-04T12:24:12.268Z,0.67
2023-02-04T12:26:38.892Z,1.00
2023-02-04T12:29:05.796Z,0.47
2023-02-04T12:31:33.085Z,0.50
2023-02-04T12:34:00.054Z,0.77
2023-02-04T12:36:27.550Z,0.53
2023-02-04T12:38:54.239Z,0.60
2023-02-04T12:41:20.688Z,1.10
2023-02-04T12:43:50.308Z,0.73
2023-02-04T12:46:17.621Z,0.70
2023-02-04T12:48:44.239Z,0.57
2023-02-04T12:51:10.676Z,0.70
2023-02-04T12:53:37.224Z,0.50
2023-02-04T12:56:03.877Z,0.70
2023-02-04T12:58:30.357Z,0.50
2023-02-04T13:00:56.894Z,0.63
2023-02-04T13:03:24.142Z,0.90
2023-02-04T13:05:50.817Z,0.80
2023-02-04T13:08:17.248Z,1.00
2023-02-04T13:10:43.748Z,0.90
2023-02-04T13:13:10.207Z,0.80
2023-02-04T13:15:36.807Z,0.70
2023-02-04T13:18:03.444Z,0.80
2023-02-04T13:20:30.467Z,1.07
2023-02-04T13:22:58.979Z,0.77
2023-02-04T13:25:25.432Z,0.90
2023-02-04T13:27:52.019Z,0.90
2023-02-04T13:30:18.617Z,0.77
2023-02-04T13:32:45.354Z,0.80
2023-02-04T13:35:11.925Z,0.90
2023-02-04T13:37:38.603Z,0.87
2023-02-04T13:40:06.315Z,0.97
2023-02-04T13:42:32.791Z,0.90
2023-02-04T13:44:59.561Z,0.93
2023-02-04T13:47:26.008Z,1.00
2023-02-04T13:49:52.671Z,0.93
2023-02-04T13:52:19.206Z,1.80
2023-02-04T13:54:46.043Z,0.83
2023-02-04T13:57:12.600Z,0.80
2023-02-04T13:59:39.068Z,1.30
2023-02-04T14:02:05.644Z,0.63
2023-02-04T14:04:32.109Z,1.00
2023-02-04T14:06:58.594Z,0.67
2023-02-04T14:09:25.438Z,0.93
2023-02-04T14:11:51.891Z,0.80
2023-02-04T14:14:18.412Z,0.90
2023-02-04T14:16:44.975Z,1.00
2023-02-04T14:19:11.690Z,0.90
2023-02-04T14:21:38.233Z,1.00
2023-02-04T14:24:04.758Z,0.70
2023-02-04T14:26:31.335Z,0.70
2023-02-04T14:28:57.789Z,0.63
2023-02-04T14:31:24.386Z,0.93
2023-02-04T14:33:50.862Z,1.10
2023-02-04T14:36:17.442Z,0.73
2023-02-04T14:38:44.014Z,2.17
2023-02-04T14:41:11.366Z,0.70
2023-02-04T14:43:37.848Z,1.00
2023-02-04T14:46:05.559Z,1.40
2023-02-04T14:48:32.331Z,0.83
2023-02-04T14:50:58.831Z,1.00
2023-02-04T14:53:25.319Z,1.00
2023-02-04T14:55:51.839Z,0.73
2023-02-04T14:58:18.504Z,1.10
2023-02-04T15:00:44.983Z,0.80
2023-02-04T15:03:11.430Z,1.03
2023-02-04T15:05:37.900Z,0.70
2023-02-04T15:08:04.723Z,0.90
2023-02-04T15:10:31.445Z,1.10
2023-02-04T15:12:59.077Z,1.10
2023-02-04T15:15:25.522Z,0.70
2023-02-04T15:17:52.049Z,0.83
2023-02-04T15:20:18.608Z,0.80
2023-02-04T15:22:45.156Z,0.73
2023-02-04T15:25:13.015Z,0.90
2023-02-04T15:27:39.500Z,0.93
2023-02-04T15:30:06.184Z,1.10
2023-02-04T15:32:32.601Z,0.80
2023-02-04T15:34:59.087Z,1.00
2023-02-04T15:37:25.588Z,0.93
2023-02-04T15:39:52.106Z,1.00
2023-02-04T15:42:18.566Z,0.90
2023-02-04T15:44:45.027Z,1.10
2023-02-04T15:47:11.463Z,1.00
2023-02-04T15:49:37.916Z,0.80
2023-02-04T15:52:05.809Z,1.08
2023-02-04T15:54:35.373Z,1.10
2023-02-04T15:57:01.908Z,1.10
2023-02-04T15:59:28.357Z,1.70
2023-02-04T16:01:54.902Z,1.50
2023-02-04T16:04:21.481Z,0.93
2023-02-04T16:06:58.191Z,1.07
2023-02-04T16:09:25.565Z,0.80
2023-02-04T16:11:52.001Z,1.00
2023-02-04T16:14:18.428Z,0.80
2023-02-04T16:16:44.919Z,1.30
2023-02-04T16:19:11.414Z,0.87
2023-02-04T16:21:37.974Z,1.02
2023-02-04T16:24:04.701Z,1.15
2023-02-04T16:26:32.242Z,1.00
2023-02-04T16:28:58.758Z,1.30
2023-02-04T16:31:25.420Z,1.30
2023-02-04T16:33:51.954Z,1.42
2023-02-04T16:36:19.011Z,1.20
2023-02-04T16:38:45.523Z,1.10
2023-02-04T16:41:14.160Z,1.55
2023-02-04T16:43:40.583Z,0.82
2023-02-04T16:46:07.092Z,1.50
2023-02-04T16:48:33.826Z,1.75
2023-02-04T16:51:00.275Z,2.35
2023-02-04T16:53:26.839Z,1.92
2023-02-04T16:55:53.413Z,1.50
2023-02-04T16:58:19.973Z,1.75
2023-02-04T17:00:46.479Z,2.38
2023-02-04T17:03:13.368Z,1.70
2023-02-04T17:05:40.465Z,2.10
2023-02-04T17:08:07.233Z,1.98
2023-02-04T17:10:54.143Z,3.45
2023-02-04T17:13:20.777Z,2.00
2023-02-04T17:15:47.271Z,2.28
2023-02-04T17:18:13.756Z,2.65
2023-02-04T17:20:40.356Z,2.15
2023-02-04T17:23:06.810Z,2.30
2023-02-04T17:25:33.564Z,2.05
2023-02-04T17:28:00.221Z,1.88
2023-02-04T17:30:26.776Z,1.55
2023-02-04T17:32:53.262Z,1.40
2023-02-04T17:35:19.784Z,1.50
2023-02-04T17:37:46.281Z,1.10
2023-02-04T17:40:13.041Z,1.40
2023-02-04T17:42:40.427Z,1.60
2023-02-04T17:45:10.279Z,1.08
2023-02-04T17:47:40.535Z,1.40
2023-02-04T17:50:09.976Z,1.90
2023-02-04T17:52:37.821Z,1.40
2023-02-04T17:55:17.670Z,2.15
2023-02-04T17:57:44.154Z,2.08
2023-02-04T18:00:15.759Z,3.05
2023-02-04T18:02:45.348Z,2.35
2023-02-04T18:05:23.126Z,2.28
2023-02-04T18:07:58.792Z,1.73
2023-02-04T18:10:31.815Z,1.70
2023-02-04T18:13:07.006Z,2.35
2023-02-04T18:15:34.473Z,1.85
2023-02-04T18:18:28.352Z,1.85
2023-02-04T18:21:19.092Z,2.25
2023-02-04T18:23:46.289Z,2.08
2023-02-04T18:26:19.058Z,1.65
2023-02-04T18:28:47.943Z,2.00
2023-02-04T18:31:28.510Z,2.05
2023-02-04T18:33:56.108Z,1.80
2023-02-04T18:36:23.088Z,2.55
2023-02-04T18:38:50.120Z,3.42
2023-02-04T18:41:20.804Z,2.25
2023-02-04T18:43:50.863Z,2.70
2023-02-04T18:46:20.770Z,2.22
2023-02-04T18:48:50.219Z,2.53
2023-02-04T18:51:23.947Z,3.30
2023-02-04T18:53:50.676Z,3.13
2023-02-04T18:56:18.213Z,3.05
2023-02-04T18:58:46.269Z,2.90
2023-02-04T19:01:12.962Z,3.90
2023-02-04T19:03:47.822Z,4.38
2023-02-04T19:06:38.983Z,3.28
2023-02-04T19:09:27.638Z,4.38
2023-02-04T19:11:56.053Z,4.10
2023-02-04T19:14:31.130Z,3.45
2023-02-04T19:17:24.269Z,4.00
2023-02-04T19:20:01.532Z,3.20
2023-02-04T19:22:46.045Z,4.60
2023-02-04T19:25:28.503Z,3.50
2023-02-04T19:27:57.330Z,4.00
2023-02-04T19:30:26.646Z,4.45
2023-02-04T19:32:55.846Z,4.28
2023-02-04T19:35:27.236Z,2.55
2023-02-04T19:38:00.358Z,3.60
2023-02-04T19:40:31.002Z,4.05
2023-02-04T19:43:22.817Z,4.63
2023-02-04T19:45:51.031Z,4.18
2023-02-04T19:48:28.360Z,3.75
2023-02-04T19:50:54.817Z,3.53
2023-02-04T19:53:23.358Z,3.50
2023-02-04T19:55:51.530Z,3.63
2023-02-04T19:58:22.383Z,3.28
2023-02-04T20:00:59.440Z,3.92
2023-02-04T20:03:35.664Z,3.50
2023-02-04T20:06:30.652Z,4.07
2023-02-04T20:09:04.467Z,4.50
2023-02-04T20:11:30.872Z,3.50
2023-02-04T20:14:14.468Z,4.50
2023-02-04T20:16:54.290Z,4.43
2023-02-04T20:19:35.294Z,6.13
2023-02-04T20:22:20.801Z,5.22
2023-02-04T20:24:50.144Z,6.05
2023-02-04T20:27:33.009Z,5.07
2023-02-04T20:30:09.310Z,4.43
2023-02-04T20:32:39.742Z,4.50
2023-02-04T20:35:12.530Z,5.18
2023-02-04T20:37:42.517Z,4.93
2023-02-04T20:40:20.981Z,5.80
2023-02-04T20:43:04.251Z,4.03
2023-02-04T20:45:39.213Z,4.80
2023-02-04T20:48:27.205Z,4.13
2023-02-04T20:50:58.529Z,4.15
2023-02-04T20:53:41.066Z,4.05
2023-02-04T20:56:32.180Z,4.20
2023-02-04T20:59:24.863Z,4.85
2023-02-04T21:01:51.372Z,3.20
2023-02-04T21:04:37.799Z,5.00
2023-02-04T21:07:18.615Z,5.88
2023-02-04T21:09:45.075Z,4.53
2023-02-04T21:12:11.630Z,5.05
2023-02-04T21:14:38.095Z,5.00
2023-02-04T21:17:04.562Z,4.30
2023-02-04T21:19:33.062Z,5.18
2023-02-04T21:21:59.650Z,5.15
2023-02-04T21:24:26.781Z,3.38
2023-02-04T21:26:53.498Z,2.88
2023-02-04T21:29:20.186Z,3.35
2023-02-04T21:31:46.728Z,3.42
2023-02-04T21:34:13.467Z,3.50
2023-02-04T21:36:39.947Z,3.80
2023-02-04T21:39:06.399Z,4.80
2023-02-04T21:41:32.855Z,4.93
2023-02-04T21:43:59.466Z,2.60
2023-02-04T21:46:26.006Z,4.38
2023-02-04T21:48:52.527Z,4.60
2023-02-04T21:51:18.974Z,3.70
2023-02-04T21:53:45.437Z,3.47
2023-02-04T21:56:11.895Z,3.40
2023-02-04T21:58:41.264Z,6.20
2023-02-04T22:01:07.742Z,3.42
2023-02-04T22:03:34.247Z,3.85
2023-02-04T22:06:00.728Z,3.33
2023-02-04T22:08:27.176Z,4.57
2023-02-04T22:10:53.682Z,4.32
2023-02-04T22:13:38.728Z,4.20
2023-02-04T22:16:05.261Z,5.10
2023-02-04T22:18:32.144Z,5.00
2023-02-04T22:20:58.884Z,5.65
2023-02-04T22:23:25.641Z,4.50
2023-02-04T22:25:52.258Z,4.18
2023-02-04T22:28:19.069Z,2.47
2023-02-04T22:30:45.852Z,3.25
2023-02-04T22:33:14.136Z,4.80
2023-02-04T22:35:40.773Z,4.13
2023-02-04T22:38:07.708Z,5.10
2023-02-04T22:40:34.446Z,2.95
2023-02-04T22:43:01.245Z,5.85
2023-02-04T22:45:29.187Z,6.07
2023-02-04T22:47:55.859Z,5.07
2023-02-04T22:50:22.842Z,3.70
2023-02-04T22:52:49.314Z,5.50
2023-02-04T22:55:15.766Z,4.00
2023-02-04T22:57:42.234Z,5.55
2023-02-04T23:00:09.808Z,6.15
2023-02-04T23:02:36.306Z,6.95
2023-02-04T23:05:03.287Z,6.30
2023-02-04T23:07:29.881Z,5.40
2023-02-04T23:09:56.325Z,4.97
2023-02-04T23:12:22.784Z,4.63
2023-02-04T23:14:49.807Z,5.38
2023-02-04T23:17:17.569Z,5.88
2023-02-04T23:19:44.412Z,8.15
2023-02-04T23:22:11.889Z,5.95
2023-02-04T23:24:38.837Z,6.05
2023-02-04T23:27:05.562Z,7.13
2023-02-04T23:29:35.045Z,4.75
2023-02-04T23:32:01.521Z,5.47
2023-02-04T23:34:28.061Z,6.00
2023-02-04T23:36:54.522Z,5.88
2023-02-04T23:39:21.059Z,4.68
2023-02-04T23:41:48.173Z,6.22
2023-02-04T23:44:14.636Z,7.32
2023-02-04T23:46:41.384Z,5.32
2023-02-04T23:49:07.855Z,4.15
2023-02-04T23:51:34.425Z,3.85
2023-02-04T23:54:01.049Z,3.70
2023-02-04T23:56:27.695Z,3.67
2023-02-04T23:58:55.249Z,3.67
